Weippe, ID (83553)

7:21 PM PDT on September 16, 2014 (GMT -0700)
Idaho Cnty AP, Grangeville, I | Change Station
CLOSE
Current Station
Airport
Location: Idaho Cnty AP, Grangeville, I,
Elevation: 3314 ft
Nearby Weather Stations
Active Advisory: Air Quality Alert

Elev 3314 ft 45.94 °N, 116.12 °W | Updated 6 minutes ago

Clear
Clear
74 °F
Feels Like 74 °F
N
7
Wind Variable Wind from North

Today
High -- | Low -- °F
--% Chance of Precip.
Yesterday
High -- | Low -- °F
Precip. -- in
6:23 AM 6:53 PM
Last Quarter, 40% visible
Pressure 29.90 in
Visibility 10.0 miles
Clouds Clear
Dew Point 34 °F
Humidity 23%
Rainfall 0.00 in
Snow Depth 0 in , 2 in , 0 in
UV 0 out of 12
Pollen 6.90 out of 12
Air Quality Not available.
Flu Activity Not available.
METAR KGIC 170215Z AUTO 35006KT 10SM CLR 24/01 A2990 RMK AO1 T02360012

More Conditions Fewer Conditions

Pressure 29.90 in
Visibility 10.0 miles
Clouds Clear
Dew Point 34 °F
Humidity 23%
Rainfall 0.00 in
Snow Depth 0 in , 2 in , 0 in
UV 0 out of 12
Pollen 6.90 out of 12
Air Quality Not available.
Flu Activity Not available.
METAR KGIC 170215Z AUTO 35006KT 10SM CLR 24/01 A2990 RMK AO1 T02360012

More Conditions Fewer Conditions

10-Day Weather Forecast

Almanac

Astronomy

Sep. 16, 2014 Rise Set
Actual Time 6:23 AM PDT 6:53 PM PDT
Civil Twilight 5:52 AM PDT 7:23 PM PDT
Nautical Twilight 5:17 AM PDT 7:58 PM PDT
Astronomical Twilight 4:39 AM PDT 8:35 PM PDT
Moon No Moon Rise 2:35 PM PDT (9/16)
Length of Visible Light 13h 30m
Length of Day
12h 29m
Tomorrow will be 3m 16s shorter.
Last Quarter, 40% of the Moon is Illuminated
Today
Last Quarter
Sep 24
New
Oct 1
First Quarter
Oct 8
Full
Oct 15
Last Quarter

Today's Extremes

State Highs State Lows

Community

WunderPhotos

Upload Photos

1,753,949 photos uploaded!

Nearby

Snow Depth

Station Depth Elevation
Magic Mountain 0 in 6880 ft
Humboldt Gulch 2 in 4250 ft
Mica Creek 0 in 4750 ft
Franklin Basin 0 in 8170 ft
Savage Pass 1 in 6170 ft

Earthquake Activity

City Distance Mag. Time & Date
Challis, Idaho 146 miles 3.0 11:58 AM PDT
2014-09-14
Minimum magnitude displayed is 2.5.

Coastal Water Temperatures

Place Temperature
No Stations Reporting

Nearby Weather Stations